Time;durP1;ratioP1;P1;durP2;ratioP2;P2;SDS_P1;SDS_P2;PMS_P1;PMS_P2;Temp;Humidity;BMP_temperature;BMP_pressure;BME280_temperature;BME280_humidity;BME280_pressure;Samples;Min_cycle;Max_cycle;Signal;HPM_P1;HPM_P2
2022/07/19 00:01:13;;;;;;;13.45;5.57;;;18.30;99.90;;;;;;5009278;28;20046;-71
2022/07/19 00:03:39;;;;;;;11.63;5.18;;;18.20;99.90;;;;;;4988534;28;20087;-71
2022/07/19 00:06:04;;;;;;;8.80;4.88;;;18.30;99.90;;;;;;4985561;28;20479;-71
2022/07/19 00:08:30;;;;;;;11.63;5.10;;;18.30;99.90;;;;;;4986294;28;20473;-71
2022/07/19 00:10:56;;;;;;;10.52;4.63;;;18.30;99.90;;;;;;4994817;28;20410;-71
2022/07/19 00:13:22;;;;;;;11.25;5.45;;;18.20;99.90;;;;;;4971806;28;20054;-72
2022/07/19 00:15:47;;;;;;;9.77;5.05;;;18.20;99.90;;;;;;4990161;28;20058;-71
2022/07/19 00:18:15;;;;;;;10.15;5.40;;;18.20;99.90;;;;;;5014826;28;20054;-71
2022/07/19 00:20:40;;;;;;;10.95;5.10;;;18.20;99.90;;;;;;4987137;28;20039;-71
2022/07/19 00:23:07;;;;;;;11.75;5.40;;;18.10;99.90;;;;;;4985402;28;20076;-71
2022/07/19 00:25:33;;;;;;;12.63;6.45;;;18.10;99.90;;;;;;4987801;28;20082;-71
2022/07/19 00:27:59;;;;;;;12.75;5.50;;;18.00;99.90;;;;;;4996733;28;20036;-71
2022/07/19 00:30:24;;;;;;;11.32;5.22;;;18.00;99.90;;;;;;4997093;28;20046;-71
2022/07/19 00:32:50;;;;;;;11.13;4.80;;;18.00;99.90;;;;;;5001602;28;20485;-71
2022/07/19 00:35:16;;;;;;;8.65;5.40;;;18.00;99.90;;;;;;4993472;28;20099;-71
2022/07/19 00:37:41;;;;;;;12.70;5.95;;;17.90;99.90;;;;;;5006825;28;20095;-71
2022/07/19 00:40:08;;;;;;;13.52;4.95;;;18.00;99.90;;;;;;4989290;28;20046;-71
2022/07/19 00:42:33;;;;;;;15.07;6.82;;;17.90;99.90;;;;;;5002075;28;20119;-71
2022/07/19 00:44:59;;;;;;;10.88;5.10;;;17.90;99.90;;;;;;4979270;28;20046;-72
2022/07/19 00:47:25;;;;;;;11.25;5.88;;;17.90;99.90;;;;;;4992559;28;20073;-71
2022/07/19 00:49:51;;;;;;;10.40;5.40;;;17.80;99.90;;;;;;4992078;28;20447;-72
2022/07/19 00:52:20;;;;;;;8.68;5.20;;;17.80;99.90;;;;;;5058427;28;20045;-71
2022/07/19 00:54:46;;;;;;;11.48;5.88;;;17.80;99.90;;;;;;5010771;28;20044;-71
2022/07/19 00:57:14;;;;;;;9.98;5.30;;;17.70;99.90;;;;;;4969829;28;20407;-72
2022/07/19 00:59:43;;;;;;;11.23;5.93;;;17.70;99.90;;;;;;4986593;28;20048;-71
2022/07/19 01:02:11;;;;;;;11.60;5.38;;;17.60;99.90;;;;;;4986473;28;20038;-71
2022/07/19 01:04:37;;;;;;;10.85;6.03;;;17.60;99.90;;;;;;4988899;28;20039;-71
2022/07/19 01:07:03;;;;;;;12.23;6.25;;;17.60;99.90;;;;;;4996289;28;20077;-72
2022/07/19 01:09:29;;;;;;;10.10;5.80;;;17.50;99.90;;;;;;4987111;28;20065;-71
2022/07/19 01:11:55;;;;;;;11.57;5.57;;;17.50;99.90;;;;;;4991480;28;20042;-71
2022/07/19 01:14:21;;;;;;;11.50;5.35;;;17.40;99.90;;;;;;4996527;28;20047;-72
2022/07/19 01:16:47;;;;;;;11.10;5.95;;;17.40;99.90;;;;;;4985574;28;20097;-71
2022/07/19 01:19:13;;;;;;;14.77;5.32;;;17.40;99.90;;;;;;5008289;28;20362;-71
2022/07/19 01:21:39;;;;;;;11.52;5.85;;;17.30;99.90;;;;;;4991191;28;20403;-71
2022/07/19 01:24:05;;;;;;;8.68;4.97;;;17.40;99.90;;;;;;5006259;28;20045;-71
2022/07/19 01:26:31;;;;;;;14.60;6.15;;;17.30;99.90;;;;;;4984277;28;20445;-71
2022/07/19 01:28:56;;;;;;;11.25;5.70;;;17.30;99.90;;;;;;4970516;28;20104;-73
2022/07/19 01:31:22;;;;;;;11.18;5.28;;;17.20;99.90;;;;;;4992119;28;20046;-72
2022/07/19 01:33:48;;;;;;;12.32;5.32;;;17.20;99.90;;;;;;5007425;28;20046;-71
2022/07/19 01:36:13;;;;;;;11.82;5.63;;;17.20;99.90;;;;;;4982871;28;20117;-71
2022/07/19 01:38:39;;;;;;;12.05;5.35;;;17.10;99.90;;;;;;4993353;28;20534;-71
2022/07/19 01:41:06;;;;;;;9.25;5.10;;;17.10;99.90;;;;;;4986471;28;20402;-72
2022/07/19 01:43:32;;;;;;;9.93;5.55;;;17.10;99.90;;;;;;4991235;28;20034;-72
2022/07/19 01:45:58;;;;;;;12.13;5.65;;;17.10;99.90;;;;;;5000069;28;20099;-71
2022/07/19 01:48:25;;;;;;;10.68;5.85;;;17.00;99.90;;;;;;4995433;28;20078;-71
2022/07/19 01:50:50;;;;;;;10.98;5.80;;;17.00;99.90;;;;;;4985212;28;20049;-72
2022/07/19 01:53:16;;;;;;;12.13;5.40;;;17.00;99.90;;;;;;4983292;28;20042;-71
2022/07/19 01:55:42;;;;;;;11.65;6.13;;;16.90;99.90;;;;;;4982900;28;20064;-71
2022/07/19 01:58:07;;;;;;;10.55;5.40;;;16.90;99.90;;;;;;4984989;28;20091;-72
2022/07/19 02:00:33;;;;;;;11.82;5.57;;;16.80;99.90;;;;;;4966608;28;20038;-70
2022/07/19 02:02:59;;;;;;;10.90;5.72;;;16.80;99.90;;;;;;4968218;28;20058;-72
2022/07/19 02:05:24;;;;;;;12.02;6.15;;;16.80;99.90;;;;;;4982241;28;20049;-71
2022/07/19 02:07:50;;;;;;;10.13;5.70;;;16.80;99.90;;;;;;4982988;28;20081;-72
2022/07/19 02:10:17;;;;;;;10.45;5.80;;;16.80;99.90;;;;;;4983654;28;20088;-71
2022/07/19 02:12:43;;;;;;;10.38;5.47;;;16.70;99.90;;;;;;4984668;28;20046;-72
2022/07/19 02:15:09;;;;;;;8.50;5.20;;;16.70;99.90;;;;;;4999596;28;20038;-71
2022/07/19 02:17:34;;;;;;;9.50;5.43;;;16.70;99.90;;;;;;4982709;28;20097;-71
2022/07/19 02:20:00;;;;;;;11.32;6.28;;;16.60;99.90;;;;;;4983408;28;20053;-72
2022/07/19 02:22:26;;;;;;;13.20;6.35;;;16.60;99.90;;;;;;4982239;28;20698;-71
2022/07/19 02:24:51;;;;;;;10.52;6.05;;;16.60;99.90;;;;;;4985210;28;20117;-71
2022/07/19 02:27:17;;;;;;;13.68;6.35;;;16.60;99.90;;;;;;4987403;28;20514;-71
2022/07/19 02:29:43;;;;;;;12.52;6.10;;;16.60;99.90;;;;;;4984881;28;20592;-71
2022/07/19 02:32:09;;;;;;;12.43;5.57;;;16.50;99.90;;;;;;4986010;28;20508;-73
2022/07/19 02:34:34;;;;;;;10.65;5.75;;;16.50;99.90;;;;;;4984243;28;20502;-72
2022/07/19 02:37:01;;;;;;;9.63;5.60;;;16.50;99.90;;;;;;5025547;28;20526;-71
2022/07/19 02:39:26;;;;;;;11.52;6.18;;;16.50;99.90;;;;;;5021669;28;20113;-73
2022/07/19 02:41:52;;;;;;;9.82;5.38;;;16.40;99.90;;;;;;4989674;28;20042;-73
2022/07/19 02:44:18;;;;;;;10.88;5.80;;;16.40;99.90;;;;;;4981699;28;20043;-72
2022/07/19 02:46:43;;;;;;;10.10;5.97;;;16.40;99.90;;;;;;5003297;28;20051;-73
2022/07/19 02:49:09;;;;;;;10.13;5.80;;;16.40;99.90;;;;;;4990398;28;20411;-73
2022/07/19 02:51:35;;;;;;;9.35;5.80;;;16.30;99.90;;;;;;5013778;28;20047;-72
2022/07/19 02:54:01;;;;;;;13.75;6.22;;;16.30;99.90;;;;;;4992732;28;20069;-72
2022/07/19 02:56:27;;;;;;;10.70;5.60;;;16.30;99.90;;;;;;4986111;28;20424;-72
2022/07/19 02:58:52;;;;;;;9.85;5.43;;;16.30;99.90;;;;;;4998020;28;20095;-72
2022/07/19 03:01:18;;;;;;;12.60;5.93;;;16.30;99.90;;;;;;4981914;28;20483;-72
2022/07/19 03:03:44;;;;;;;10.90;5.90;;;16.30;99.90;;;;;;4991071;28;21110;-72
2022/07/19 03:06:11;;;;;;;11.05;5.30;;;16.30;99.90;;;;;;5024925;28;20115;-73
2022/07/19 03:08:37;;;;;;;13.23;6.18;;;16.30;99.90;;;;;;5016256;28;20046;-72
2022/07/19 03:11:03;;;;;;;10.88;5.82;;;16.30;99.90;;;;;;4986750;28;20039;-71
2022/07/19 03:13:29;;;;;;;12.50;5.88;;;16.30;99.90;;;;;;4987222;28;20720;-72
2022/07/19 03:15:56;;;;;;;13.07;6.25;;;16.30;99.90;;;;;;4983415;28;20051;-71
2022/07/19 03:18:21;;;;;;;10.88;5.70;;;16.20;99.90;;;;;;4994867;28;20486;-71
2022/07/19 03:20:47;;;;;;;9.95;5.82;;;16.30;99.90;;;;;;4965613;28;20129;-72
2022/07/19 03:23:13;;;;;;;13.40;6.55;;;16.30;99.90;;;;;;4987767;28;20174;-72
2022/07/19 03:25:39;;;;;;;12.52;5.70;;;16.30;99.90;;;;;;4997999;28;20084;-76
2022/07/19 03:28:04;;;;;;;14.90;5.50;;;16.40;99.90;;;;;;4981435;28;20097;-75
2022/07/19 03:30:31;;;;;;;9.80;5.38;;;16.50;99.90;;;;;;4984809;28;20411;-75
2022/07/19 03:32:58;;;;;;;13.77;5.57;;;16.60;99.90;;;;;;4993117;28;20166;-72
2022/07/19 03:35:23;;;;;;;9.93;4.97;;;16.70;99.90;;;;;;4984272;28;20430;-76
2022/07/19 03:37:49;;;;;;;9.77;4.95;;;16.70;99.90;;;;;;5025334;28;20125;-75
2022/07/19 03:40:15;;;;;;;12.18;4.68;;;16.70;99.90;;;;;;4995891;28;20042;-75
2022/07/19 03:42:41;;;;;;;10.00;5.00;;;16.70;99.90;;;;;;4992775;28;20043;-76
2022/07/19 03:45:10;;;;;;;8.88;4.80;;;16.60;99.90;;;;;;4994548;28;20043;-76
2022/07/19 03:47:35;;;;;;;12.80;5.53;;;16.60;99.90;;;;;;5003408;28;20046;-75
2022/07/19 03:50:01;;;;;;;11.10;5.40;;;16.50;99.90;;;;;;4986232;28;20184;-76
2022/07/19 03:52:27;;;;;;;10.40;5.32;;;16.50;99.90;;;;;;5005275;28;20053;-75
2022/07/19 03:54:53;;;;;;;10.18;5.43;;;16.50;99.90;;;;;;5000371;28;20113;-76
2022/07/19 03:57:18;;;;;;;11.27;5.05;;;16.50;99.90;;;;;;4989111;28;20145;-76
2022/07/19 03:59:44;;;;;;;10.02;5.05;;;16.50;99.90;;;;;;4979741;28;20045;-76
2022/07/19 04:02:10;;;;;;;8.50;4.70;;;16.50;99.90;;;;;;5004809;28;20061;-76
2022/07/19 04:04:36;;;;;;;9.43;5.43;;;16.50;99.90;;;;;;5002032;28;20731;-75
2022/07/19 04:07:02;;;;;;;13.30;6.03;;;16.50;99.90;;;;;;4987511;28;20034;-76
2022/07/19 04:09:27;;;;;;;11.88;5.30;;;16.50;99.90;;;;;;5037926;28;20099;-75
2022/07/19 04:11:53;;;;;;;10.85;5.72;;;16.50;99.90;;;;;;4989678;28;20145;-75
2022/07/19 04:14:19;;;;;;;10.68;5.35;;;16.50;99.90;;;;;;4991324;28;20061;-74
2022/07/19 04:16:45;;;;;;;10.30;5.25;;;16.50;99.90;;;;;;5000282;28;20054;-75
2022/07/19 04:19:11;;;;;;;12.23;5.60;;;16.50;99.90;;;;;;4984799;28;20055;-75
2022/07/19 04:21:39;;;;;;;12.57;5.70;;;16.60;99.90;;;;;;4982757;28;20127;-75
2022/07/19 04:24:05;;;;;;;10.07;5.32;;;16.50;99.90;;;;;;4987485;28;20467;-75
2022/07/19 04:26:31;;;;;;;11.55;5.40;;;16.60;99.90;;;;;;4985328;28;20079;-75
2022/07/19 04:28:57;;;;;;;9.85;5.32;;;16.60;99.90;;;;;;5001882;28;20073;-75
2022/07/19 04:31:22;;;;;;;12.82;6.13;;;16.70;99.90;;;;;;4983584;28;20044;-75
2022/07/19 04:33:48;;;;;;;9.27;5.40;;;16.70;99.90;;;;;;4993913;28;20046;-74
2022/07/19 04:36:14;;;;;;;10.40;5.25;;;16.80;99.90;;;;;;4983875;28;20045;-74
2022/07/19 04:38:39;;;;;;;9.43;5.80;;;16.90;99.90;;;;;;4997787;28;20060;-75
2022/07/19 04:41:05;;;;;;;8.32;5.05;;;17.10;99.90;;;;;;4978449;28;20047;-74
2022/07/19 04:43:31;;;;;;;10.10;5.35;;;17.70;99.90;;;;;;5017560;28;20078;-75
2022/07/19 04:45:59;;;;;;;10.10;4.95;;;18.30;99.90;;;;;;4966847;28;20075;-75
2022/07/19 04:48:26;;;;;;;10.90;5.07;;;18.90;99.90;;;;;;4988209;28;20038;-74
2022/07/19 04:50:51;;;;;;;11.82;5.22;;;19.60;99.90;;;;;;4978917;28;20713;-74
2022/07/19 04:53:17;;;;;;;8.68;4.90;;;20.20;99.90;;;;;;4980207;28;20056;-74
2022/07/19 04:55:43;;;;;;;10.00;4.63;;;20.80;99.90;;;;;;4977449;28;20199;-74
2022/07/19 04:58:08;;;;;;;12.93;4.68;;;21.20;99.90;;;;;;4983369;28;20161;-75
2022/07/19 05:00:34;;;;;;;8.68;4.90;;;21.70;99.90;;;;;;4977660;28;20103;-75
2022/07/19 05:03:00;;;;;;;9.85;4.55;;;22.20;99.90;;;;;;5015191;28;20517;-74
2022/07/19 05:05:26;;;;;;;10.30;5.68;;;22.70;99.90;;;;;;4981720;28;20042;-75
2022/07/19 05:07:51;;;;;;;11.15;4.93;;;23.10;99.90;;;;;;4979177;28;20039;-75
2022/07/19 05:10:17;;;;;;;10.18;4.97;;;23.40;99.90;;;;;;4982514;28;20187;-75
2022/07/19 05:12:43;;;;;;;9.98;4.75;;;23.80;99.90;;;;;;4986744;28;20038;-75
2022/07/19 05:15:09;;;;;;;10.27;4.90;;;24.10;99.90;;;;;;4980018;28;20050;-74
2022/07/19 05:17:36;;;;;;;10.50;4.32;;;24.50;99.90;;;;;;4983525;28;20110;-75
2022/07/19 05:20:03;;;;;;;10.32;4.45;;;24.80;99.90;;;;;;4969648;28;20053;-74
2022/07/19 05:22:28;;;;;;;7.85;4.30;;;25.20;99.90;;;;;;4984339;28;20046;-74
2022/07/19 05:24:55;;;;;;;9.10;4.60;;;25.60;99.90;;;;;;4983476;28;20100;-75
2022/07/19 05:27:21;;;;;;;9.77;4.88;;;25.70;99.90;;;;;;4980151;28;20973;-73
2022/07/19 05:29:47;;;;;;;11.57;5.40;;;25.00;99.90;;;;;;4984634;28;20042;-73
2022/07/19 05:32:13;;;;;;;9.13;4.38;;;24.30;99.90;;;;;;4978216;28;20042;-72
2022/07/19 05:34:39;;;;;;;9.20;4.70;;;23.70;99.90;;;;;;4983313;28;20054;-72
2022/07/19 05:37:05;;;;;;;9.43;4.55;;;23.10;99.90;;;;;;4979643;28;20053;-73
2022/07/19 05:39:31;;;;;;;8.85;4.68;;;22.70;99.90;;;;;;4994178;28;20501;-72
2022/07/19 05:41:56;;;;;;;10.63;5.03;;;22.30;99.90;;;;;;4984620;28;20204;-73
2022/07/19 05:44:22;;;;;;;8.93;4.35;;;22.10;99.90;;;;;;4983439;28;20314;-74
2022/07/19 05:46:48;;;;;;;10.60;4.20;;;21.90;99.90;;;;;;4983956;28;20663;-74
2022/07/19 05:49:14;;;;;;;11.93;4.88;;;21.70;99.90;;;;;;4960841;28;20049;-75
2022/07/19 05:51:40;;;;;;;8.88;4.57;;;21.50;99.90;;;;;;4982531;28;20050;-74
2022/07/19 05:54:06;;;;;;;10.13;4.53;;;21.30;99.90;;;;;;4979870;28;21525;-70
2022/07/19 05:56:32;;;;;;;9.77;4.70;;;21.30;99.90;;;;;;4985933;28;20461;-68
2022/07/19 05:58:58;;;;;;;12.23;5.30;;;21.20;99.90;;;;;;4982654;28;20525;-68
2022/07/19 06:01:24;;;;;;;9.52;4.57;;;21.20;99.90;;;;;;4997237;28;20050;-71
2022/07/19 06:03:56;;;;;;;11.25;5.57;;;21.20;99.90;;;;;;4989388;28;20121;-76
2022/07/19 06:06:23;;;;;;;10.38;4.80;;;21.10;99.90;;;;;;4982310;28;20065;-74
2022/07/19 06:08:50;;;;;;;9.60;4.65;;;21.10;99.90;;;;;;4960725;28;20049;-69
2022/07/19 06:11:17;;;;;;;9.98;4.88;;;21.20;99.90;;;;;;4963614;28;20070;-69
2022/07/19 06:13:44;;;;;;;8.55;4.10;;;21.20;99.90;;;;;;4964822;28;20061;-79
2022/07/19 06:16:11;;;;;;;10.05;4.15;;;21.30;99.90;;;;;;4963667;28;20064;-69
2022/07/19 06:18:38;;;;;;;9.50;4.30;;;21.30;99.90;;;;;;4992937;28;20062;-71
2022/07/19 06:21:10;;;;;;;9.73;3.80;;;21.50;99.90;;;;;;4964519;28;20047;-69
2022/07/19 06:23:37;;;;;;;10.50;4.72;;;21.50;99.90;;;;;;4979154;28;20050;-69
2022/07/19 06:26:04;;;;;;;8.65;3.80;;;21.60;99.90;;;;;;4970580;28;20118;-69
2022/07/19 06:28:30;;;;;;;8.13;3.50;;;22.00;99.90;;;;;;5009037;28;20043;-72
2022/07/19 06:30:55;;;;;;;11.02;4.22;;;22.00;99.90;;;;;;4963964;28;20057;-70
2022/07/19 06:33:21;;;;;;;10.68;3.75;;;22.10;99.90;;;;;;4979507;28;20051;-70
2022/07/19 06:35:47;;;;;;;8.43;3.78;;;22.20;99.90;;;;;;4981914;28;20053;-70
2022/07/19 06:38:13;;;;;;;8.80;3.60;;;22.40;99.90;;;;;;5010268;28;20077;-71
2022/07/19 06:40:39;;;;;;;8.70;3.60;;;23.00;99.90;;;;;;4980408;28;20310;-71
2022/07/19 06:43:05;;;;;;;8.43;3.45;;;24.20;99.90;;;;;;4976812;28;20111;-69
2022/07/19 06:45:31;;;;;;;9.55;3.70;;;24.70;99.90;;;;;;4980330;28;20113;-69
2022/07/19 06:47:57;;;;;;;8.95;4.00;;;24.30;99.90;;;;;;4980152;28;20073;-71
2022/07/19 06:50:23;;;;;;;10.07;3.78;;;24.00;99.90;;;;;;4994781;28;20104;-70
2022/07/19 06:52:48;;;;;;;10.80;3.72;;;23.80;99.90;;;;;;4979015;28;20465;-72
2022/07/19 06:55:14;;;;;;;7.53;3.67;;;23.70;99.90;;;;;;4989080;28;20463;-70
2022/07/19 06:57:40;;;;;;;9.07;3.65;;;23.60;99.90;;;;;;4985436;28;20054;-70
2022/07/19 07:00:08;;;;;;;6.90;3.55;;;23.50;99.90;;;;;;5014770;27;20687;-70
2022/07/19 07:02:35;;;;;;;12.20;3.90;;;23.50;99.90;;;;;;4984404;28;20050;-71
2022/07/19 07:05:01;;;;;;;8.68;3.50;;;23.50;99.90;;;;;;4990182;28;20050;-70
2022/07/19 07:07:27;;;;;;;8.70;3.42;;;23.60;99.90;;;;;;4979234;28;20057;-69
2022/07/19 07:09:52;;;;;;;8.05;3.97;;;23.60;99.90;;;;;;4981680;28;20046;-69
2022/07/19 07:12:18;;;;;;;7.20;3.15;;;23.70;99.90;;;;;;4990681;28;20050;-69
2022/07/19 07:14:44;;;;;;;8.68;3.35;;;23.80;99.90;;;;;;4990020;28;20069;-70
2022/07/19 07:17:10;;;;;;;6.60;3.35;;;23.90;99.90;;;;;;4967800;28;20054;-72
2022/07/19 07:19:36;;;;;;;7.15;3.47;;;24.00;99.90;;;;;;4986450;28;20523;-71
2022/07/19 07:22:02;;;;;;;9.77;3.25;;;24.20;99.90;;;;;;4985490;28;20039;-70
2022/07/19 07:24:28;;;;;;;10.25;3.75;;;24.40;99.90;;;;;;4984064;28;20050;-70
2022/07/19 07:26:54;;;;;;;7.20;3.60;;;24.70;99.90;;;;;;4979644;28;20137;-71
2022/07/19 07:29:20;;;;;;;7.63;3.25;;;25.00;99.90;;;;;;4986493;28;20054;-72
2022/07/19 07:31:46;;;;;;;8.05;3.40;;;25.30;99.90;;;;;;4981585;28;20046;-72
2022/07/19 07:34:11;;;;;;;9.00;3.90;;;25.70;99.90;;;;;;4979878;28;21270;-71
2022/07/19 07:36:37;;;;;;;8.35;3.00;;;26.20;99.90;;;;;;4990223;28;20043;-70
2022/07/19 07:39:03;;;;;;;6.88;3.05;;;27.20;99.90;;;;;;4983331;28;20035;-70
2022/07/19 07:41:29;;;;;;;8.18;3.38;;;27.80;99.90;;;;;;4984103;28;20046;-70
2022/07/19 07:43:55;;;;;;;11.77;3.20;;;28.00;99.90;;;;;;4983421;28;20043;-71
2022/07/19 07:46:20;;;;;;;9.50;3.17;;;28.10;99.90;;;;;;4992603;28;20042;-71
2022/07/19 07:48:46;;;;;;;10.35;3.35;;;28.10;99.90;;;;;;4990102;28;20089;-70
2022/07/19 07:51:12;;;;;;;8.88;3.22;;;28.30;99.90;;;;;;4970760;28;20046;-71
2022/07/19 07:53:38;;;;;;;8.85;3.30;;;28.40;99.90;;;;;;4999984;28;20048;-71
2022/07/19 07:56:04;;;;;;;6.03;2.90;;;28.60;99.90;;;;;;4993047;28;20048;-71
2022/07/19 07:58:30;;;;;;;14.75;3.22;;;28.80;99.80;;;;;;4983060;28;20121;-72
2022/07/19 08:00:56;;;;;;;9.80;3.42;;;28.90;99.60;;;;;;4997863;28;20054;-72
2022/07/19 08:03:21;;;;;;;8.35;3.28;;;29.20;99.90;;;;;;4987986;28;20046;-72
2022/07/19 08:05:48;;;;;;;6.82;2.97;;;29.50;99.80;;;;;;4969741;28;20116;-70
2022/07/19 08:08:17;;;;;;;6.68;2.78;;;29.60;98.80;;;;;;5023188;27;20046;-72
2022/07/19 08:10:43;;;;;;;8.55;3.45;;;29.70;97.80;;;;;;4996500;28;20084;-73
2022/07/19 08:13:09;;;;;;;9.77;3.13;;;29.80;98.00;;;;;;4994638;28;20065;-72
2022/07/19 08:15:39;;;;;;;10.50;3.30;;;30.00;97.60;;;;;;4968846;28;20046;-71
2022/07/19 08:18:05;;;;;;;6.67;2.77;;;30.20;97.20;;;;;;4995450;28;20524;-74
2022/07/19 08:20:31;;;;;;;8.48;3.30;;;30.40;97.70;;;;;;4990117;28;20125;-73
2022/07/19 08:22:57;;;;;;;9.52;3.15;;;30.80;97.90;;;;;;4991952;28;20049;-73
2022/07/19 08:25:23;;;;;;;7.03;2.85;;;31.00;96.80;;;;;;4984092;28;20042;-72
2022/07/19 08:27:48;;;;;;;7.10;2.85;;;31.20;96.20;;;;;;4997409;28;20042;-71
2022/07/19 08:30:14;;;;;;;10.20;3.25;;;31.40;95.80;;;;;;4991662;28;20070;-73
2022/07/19 08:32:41;;;;;;;7.30;3.10;;;31.50;94.60;;;;;;4993440;28;20522;-72
2022/07/19 08:35:08;;;;;;;7.38;2.63;;;31.70;94.40;;;;;;4981918;28;20133;-72
2022/07/19 08:37:34;;;;;;;5.65;2.65;;;31.80;94.00;;;;;;4987057;28;20073;-71
2022/07/19 08:40:01;;;;;;;6.82;2.67;;;31.90;93.60;;;;;;4970394;28;20042;-71
2022/07/19 08:42:27;;;;;;;7.13;2.88;;;32.00;93.60;;;;;;4988247;28;20123;-73
2022/07/19 08:44:54;;;;;;;6.35;2.60;;;32.20;93.80;;;;;;4965743;28;20051;-75
2022/07/19 08:47:21;;;;;;;7.47;2.88;;;32.30;93.10;;;;;;4969574;28;20046;-73
2022/07/19 08:49:47;;;;;;;7.93;3.10;;;32.40;90.90;;;;;;4986421;28;20053;-72
2022/07/19 08:52:13;;;;;;;6.88;2.72;;;32.50;91.00;;;;;;4990170;28;20050;-73
2022/07/19 08:54:39;;;;;;;9.27;2.45;;;32.60;91.20;;;;;;5000234;28;20047;-70
2022/07/19 08:59:51;;;;;;;5.05;1.90;;;32.80;87.50;;;;;;4991635;28;20520;-74
2022/07/19 09:02:17;;;;;;;9.10;2.67;;;32.90;88.50;;;;;;4989817;28;20181;-74
2022/07/19 09:04:43;;;;;;;7.78;2.35;;;33.00;86.00;;;;;;4988737;28;20038;-74
2022/07/19 09:07:09;;;;;;;8.48;2.83;;;33.10;85.10;;;;;;4984463;28;20057;-75
2022/07/19 09:09:36;;;;;;;7.90;2.38;;;33.20;85.20;;;;;;4984016;28;20054;-72
2022/07/19 09:12:04;;;;;;;6.43;2.30;;;33.30;85.10;;;;;;4982268;28;20038;-74
2022/07/19 09:14:36;;;;;;;15.45;3.25;;;33.50;85.20;;;;;;4982161;28;20423;-73
2022/07/19 09:17:04;;;;;;;7.57;2.45;;;33.70;84.40;;;;;;4981543;28;20062;-74
2022/07/19 09:19:38;;;;;;;8.60;2.60;;;33.90;83.40;;;;;;5017567;27;20469;-75
2022/07/19 09:22:15;;;;;;;7.28;2.30;;;34.00;83.00;;;;;;4991554;28;20072;-73
2022/07/19 09:24:43;;;;;;;5.95;2.15;;;34.20;80.60;;;;;;5006234;28;20073;-74
2022/07/19 09:27:14;;;;;;;7.05;2.00;;;34.20;77.50;;;;;;4990319;28;20047;-73
2022/07/19 09:29:52;;;;;;;5.38;2.30;;;34.20;78.40;;;;;;4986211;28;20046;-74
2022/07/19 09:32:20;;;;;;;6.68;2.70;;;34.40;79.30;;;;;;4983912;28;20054;-72
2022/07/19 09:34:58;;;;;;;6.20;2.22;;;34.50;78.40;;;;;;4986148;28;20069;-75
2022/07/19 09:37:27;;;;;;;9.55;2.50;;;34.60;78.20;;;;;;5007872;28;20130;-74
2022/07/19 09:39:57;;;;;;;5.65;2.10;;;34.80;78.20;;;;;;4992708;28;20047;-73
2022/07/19 09:42:36;;;;;;;7.80;2.42;;;34.90;76.70;;;;;;4991130;28;20080;-75
2022/07/19 09:45:07;;;;;;;9.82;2.17;;;34.90;74.50;;;;;;5005756;28;20117;-72
2022/07/19 09:47:39;;;;;;;10.43;2.40;;;35.00;75.20;;;;;;4987413;28;20070;-75
2022/07/19 09:50:10;;;;;;;8.32;2.08;;;35.10;76.70;;;;;;4986500;28;20536;-73
2022/07/19 09:52:39;;;;;;;8.15;2.17;;;35.20;74.80;;;;;;4992531;28;20569;-75
2022/07/19 09:55:07;;;;;;;5.80;2.10;;;35.20;72.70;;;;;;5001472;28;20054;-74
2022/07/19 09:57:40;;;;;;;5.38;2.20;;;35.20;73.40;;;;;;5000627;28;20407;-76
2022/07/19 10:00:07;;;;;;;6.97;2.10;;;35.30;73.30;;;;;;4997497;28;20034;-72
2022/07/19 10:02:39;;;;;;;7.25;2.17;;;35.50;72.80;;;;;;5018918;27;20588;-76
2022/07/19 10:05:06;;;;;;;9.75;2.00;;;35.60;70.60;;;;;;4991763;28;20042;-76
2022/07/19 10:07:33;;;;;;;4.68;2.10;;;35.60;70.50;;;;;;4998976;28;20184;-74
2022/07/19 10:10:05;;;;;;;9.02;2.42;;;35.60;71.40;;;;;;4989094;28;20045;-75
2022/07/19 10:12:31;;;;;;;6.45;1.90;;;35.70;69.90;;;;;;5004696;28;20396;-76
2022/07/19 10:14:57;;;;;;;6.22;2.10;;;35.80;71.50;;;;;;4987806;28;20529;-76
2022/07/19 10:17:41;;;;;;;8.40;2.00;;;35.90;68.20;;;;;;4989757;28;20054;-69
2022/07/19 10:20:15;;;;;;;4.97;2.08;;;35.90;67.00;;;;;;4977141;28;20221;-70
2022/07/19 10:22:41;;;;;;;5.63;1.80;;;35.90;66.20;;;;;;4988014;28;20053;-67
2022/07/19 10:25:17;;;;;;;5.78;1.52;;;36.10;67.40;;;;;;4966304;28;20046;-69
2022/07/19 10:27:46;;;;;;;5.85;1.88;;;36.20;64.60;;;;;;5012252;28;20096;-70
2022/07/19 10:30:14;;;;;;;8.23;1.92;;;36.20;65.60;;;;;;4977804;28;20112;-68
2022/07/19 10:32:42;;;;;;;3.67;1.70;;;36.20;64.50;;;;;;5015470;28;20051;-67
2022/07/19 10:35:15;;;;;;;6.47;1.75;;;36.10;65.20;;;;;;4980317;28;20140;-70
2022/07/19 10:37:42;;;;;;;6.40;1.95;;;36.10;60.60;;;;;;5012562;28;20374;-69
2022/07/19 10:40:09;;;;;;;5.15;2.03;;;36.10;63.50;;;;;;5008942;28;20344;-69
2022/07/19 10:42:35;;;;;;;5.63;1.90;;;36.10;63.30;;;;;;4975802;28;20437;-70
2022/07/19 10:45:00;;;;;;;4.90;1.60;;;36.10;63.00;;;;;;4999268;28;20049;-69
2022/07/19 10:47:32;;;;;;;7.18;1.70;;;36.10;60.60;;;;;;4977807;28;20050;-67
2022/07/19 10:50:02;;;;;;;5.20;1.60;;;36.10;61.70;;;;;;4971168;28;20054;-69
2022/07/19 10:52:31;;;;;;;3.90;1.50;;;36.20;62.30;;;;;;4983113;28;20043;-70
2022/07/19 10:55:15;;;;;;;3.63;1.83;;;36.30;61.40;;;;;;4972151;28;20531;-70
2022/07/19 10:57:41;;;;;;;5.18;1.80;;;36.30;59.40;;;;;;4993337;28;20450;-70
2022/07/19 11:00:21;;;;;;;3.50;1.50;;;36.40;60.40;;;;;;4978562;28;20042;-70
2022/07/19 11:02:48;;;;;;;4.25;1.65;;;36.40;59.10;;;;;;4986722;28;20403;-68
2022/07/19 11:05:24;;;;;;;2.63;1.40;;;36.40;58.00;;;;;;4983743;28;20047;-69
2022/07/19 11:07:53;;;;;;;4.40;1.40;;;36.40;58.50;;;;;;4972800;28;20039;-69
2022/07/19 11:10:28;;;;;;;4.77;1.30;;;36.50;59.20;;;;;;4961962;28;20046;-71
2022/07/19 11:12:57;;;;;;;5.28;1.60;;;36.40;56.30;;;;;;5006324;28;20317;-69
2022/07/19 11:15:23;;;;;;;5.28;1.45;;;36.40;56.60;;;;;;4981150;28;20339;-70
2022/07/19 11:18:02;;;;;;;3.80;1.40;;;36.40;55.30;;;;;;4984294;28;20063;-70
2022/07/19 11:20:29;;;;;;;6.30;1.60;;;36.30;54.90;;;;;;4986595;28;20062;-69
2022/07/19 11:22:57;;;;;;;4.10;1.33;;;36.40;58.60;;;;;;4980515;28;20047;-69
2022/07/19 11:25:34;;;;;;;5.53;1.35;;;36.50;54.80;;;;;;4983637;28;20230;-71
2022/07/19 11:28:00;;;;;;;5.18;1.38;;;36.50;56.40;;;;;;4992258;28;20134;-68
2022/07/19 11:30:29;;;;;;;8.73;1.40;;;36.50;56.80;;;;;;4998503;28;20410;-71
2022/07/19 11:33:04;;;;;;;5.93;1.17;;;36.60;56.70;;;;;;5006113;28;20464;-68
2022/07/19 11:35:30;;;;;;;6.30;1.67;;;36.70;53.40;;;;;;4999997;28;20038;-67
2022/07/19 11:37:58;;;;;;;3.67;1.42;;;36.70;55.50;;;;;;4974253;28;20905;-69
2022/07/19 11:40:31;;;;;;;6.53;1.23;;;36.80;56.30;;;;;;5005631;28;20077;-68
2022/07/19 11:42:57;;;;;;;4.35;1.48;;;36.80;53.60;;;;;;4981979;28;20054;-70
2022/07/19 11:45:25;;;;;;;2.75;1.40;;;36.80;55.60;;;;;;5006369;28;20042;-69
2022/07/19 11:47:53;;;;;;;3.97;1.27;;;36.80;55.00;;;;;;4989646;28;20129;-71
2022/07/19 11:50:25;;;;;;;4.25;1.00;;;36.70;54.40;;;;;;4980236;28;20161;-69
2022/07/19 11:52:54;;;;;;;7.68;1.33;;;36.80;54.70;;;;;;4973296;28;20039;-70
2022/07/19 11:55:22;;;;;;;4.40;1.40;;;36.80;53.00;;;;;;4974624;28;20050;-70
2022/07/19 11:57:49;;;;;;;4.10;1.30;;;36.80;55.00;;;;;;5005503;27;20411;-70
2022/07/19 12:00:16;;;;;;;3.97;1.40;;;36.80;51.30;;;;;;4974616;28;20050;-71
2022/07/19 12:03:06;;;;;;;3.30;1.10;;;36.80;54.00;;;;;;4981287;28;20050;-69
2022/07/19 12:05:37;;;;;;;4.20;1.20;;;36.90;54.50;;;;;;4982748;28;20073;-71
2022/07/19 12:08:05;;;;;;;4.07;1.30;;;37.00;55.50;;;;;;4981161;28;20054;-70
2022/07/19 12:10:43;;;;;;;3.78;1.20;;;37.00;53.70;;;;;;4982071;28;20835;-68
2022/07/19 12:13:12;;;;;;;3.42;1.20;;;37.00;50.50;;;;;;4990778;28;20114;-72
2022/07/19 12:15:55;;;;;;;3.87;1.30;;;36.90;54.10;;;;;;4984188;28;20058;-71
2022/07/19 12:18:43;;;;;;;5.00;1.50;;;36.90;53.40;;;;;;4976360;28;20046;-71
2022/07/19 12:21:21;;;;;;;4.55;1.40;;;36.90;53.40;;;;;;4978298;28;20328;-71
2022/07/19 12:24:10;;;;;;;2.70;1.30;;;36.90;53.90;;;;;;4980928;28;20092;-70
2022/07/19 12:26:37;;;;;;;7.60;1.55;;;37.00;52.80;;;;;;4990675;28;20062;-69
2022/07/19 12:29:39;;;;;;;5.60;1.30;;;37.10;54.80;;;;;;4980823;28;20418;-70
2022/07/19 12:32:11;;;;;;;3.95;1.40;;;37.00;52.30;;;;;;4996301;28;21877;-71
2022/07/19 12:34:59;;;;;;;6.07;1.42;;;37.00;52.70;;;;;;4974808;28;20082;-68
2022/07/19 12:37:36;;;;;;;3.55;1.45;;;36.90;52.80;;;;;;5006678;28;20513;-70
2022/07/19 12:40:13;;;;;;;3.63;1.27;;;36.90;53.00;;;;;;4980533;28;20086;-70
2022/07/19 12:42:43;;;;;;;6.88;1.73;;;36.90;53.30;;;;;;4968905;28;20411;-70
2022/07/19 12:45:14;;;;;;;4.80;1.40;;;36.90;53.70;;;;;;4972833;28;20050;-70
2022/07/19 12:47:40;;;;;;;5.75;1.45;;;37.00;54.20;;;;;;4971558;28;20054;-68